CST,Max TemperatureF,Mean TemperatureF,Min TemperatureF,Max Dew PointF,MeanDew PointF,Min DewpointF,Max Humidity, Mean Humidity, Min Humidity, Max Sea Level PressureIn, Mean Sea Level PressureIn, Min Sea Level PressureIn, Max VisibilityMiles, Mean VisibilityMiles, Min VisibilityMiles, Max Wind SpeedMPH, Mean Wind SpeedMPH, Max Gust SpeedMPH,PrecipitationIn, CloudCover, Events, WindDirDegrees
2014-1-1,62,49,35,52,44,33,100,80,60,30.29,30.15,30.03,10,9,2,14,5,16,0.14,6,Rain,166
2014-1-2,56,43,30,54,41,20,93,72,50,30.40,30.10,29.95,10,8,1,26,11,36,0.44,6,Rain,289
2014-1-3,42,34,25,20,16,13,75,53,30,30.51,30.40,30.29,10,10,10,18,7,25,0.00,0,,44
2014-1-4,58,40,22,42,30,16,86,67,47,30.27,30.17,30.04,10,10,10,21,8,25,0.00,1,,158
2014-1-5,65,47,28,57,44,20,93,78,63,30.25,29.96,29.79,10,7,1,25,13,45,0.16,8,Rain,227
2014-1-6,28,21,14,18,6,0,74,54,33,30.61,30.51,30.29,10,10,10,25,13,35,0.00,2,,335
2014-1-7,32,23,14,13,5,-2,73,52,31,30.68,30.58,30.50,10,10,10,15,4,18,0.00,2,,38
2014-1-8,47,32,17,14,9,5,80,49,17,30.53,30.43,30.35,10,10,10,13,6,20,0.00,3,,141
2014-1-9,63,51,38,41,23,11,77,49,20,30.35,30.29,30.21,10,10,10,17,7,20,0.00,6,,125
2014-1-10,66,54,41,63,49,39,96,84,71,30.19,30.01,29.76,10,7,0,23,10,31,0.03,7,Fog-Rain-Thunderstorm,145
2014-1-11,67,52,36,64,46,28,93,60,26,30.08,29.89,29.73,10,9,3,24,9,32,0.34,4,Rain,271
2014-1-12,67,49,31,38,32,29,89,57,24,30.20,30.10,30.00,10,10,10,20,7,24,T,0,Rain,168
2014-1-13,60,53,45,57,51,36,100,89,77,30.03,29.92,29.82,10,9,2,15,7,21,0.43,7,Rain,188
2014-1-14,64,49,34,44,34,28,100,64,27,30.09,30.04,29.99,10,10,10,17,4,26,0.00,0,,256
2014-1-15,50,38,25,37,20,11,71,47,23,30.25,30.18,30.09,10,10,10,21,9,30,T,2,,335
2014-1-16,62,44,25,35,25,18,75,49,23,30.17,30.08,29.98,10,10,10,21,8,29,0.00,1,,202
2014-1-17,51,38,25,33,17,7,70,43,16,30.24,30.16,30.03,10,10,10,22,7,31,0.00,1,,292
2014-1-18,61,42,22,35,20,13,74,46,18,30.27,30.15,30.02,10,10,10,21,8,31,T,0,,200
2014-1-19,61,47,32,41,29,22,77,50,22,30.25,30.15,30.04,10,10,10,14,4,18,T,0,,305
2014-1-20,69,49,28,39,30,24,85,53,20,30.12,30.01,29.93,10,10,10,16,5,20,0.00,0,,196
2014-1-21,55,41,27,42,23,15,80,57,34,30.25,30.14,29.91,10,10,10,28,14,40,0.00,0,,337
2014-1-22,49,34,19,24,16,9,84,54,23,30.25,30.21,30.14,10,10,10,9,2,17,0.00,0,,84
2014-1-23,45,37,28,21,15,3,69,50,30,30.68,30.46,30.22,10,10,10,18,9,23,T,5,,12
2014-1-24,37,29,20,10,4,-1,62,43,23,30.68,30.53,30.30,10,10,10,17,6,21,0.00,4,,21
2014-1-25,59,40,20,26,18,10,77,48,19,30.27,30.11,30.00,10,10,10,17,6,21,0.00,0,,225
2014-1-26,65,48,31,40,32,26,82,57,31,30.02,29.93,29.84,10,10,10,16,7,22,0.00,4,,167
2014-1-27,54,42,30,46,29,2,96,61,26,30.23,30.03,29.86,10,9,4,22,12,28,0.00,5,,4
2014-1-28,30,26,21,17,11,2,84,56,28,30.43,30.33,30.23,10,7,1,22,12,28,0.07,7,Rain-Snow,3
2014-1-29,35,26,16,12,4,-1,74,51,28,30.49,30.42,30.35,10,10,10,17,4,23,0.00,3,,45
2014-1-30,50,32,14,18,9,4,80,48,16,30.35,30.21,30.09,10,10,10,17,6,23,0.00,0,,164
2014-1-31,63,44,25,42,34,20,82,64,46,30.17,30.10,30.04,10,10,10,15,6,20,0.00,3,,169